createdAt,value
2018-04-11T00:00:52.777Z,68.90
2018-04-11T00:03:25.886Z,68.70
2018-04-11T00:05:58.257Z,68.70
2018-04-11T00:08:30.630Z,68.30
2018-04-11T00:11:03.081Z,68.30
2018-04-11T00:13:35.643Z,68.50
2018-04-11T00:16:07.996Z,68.70
2018-04-11T00:18:41.140Z,68.80
2018-04-11T00:21:13.558Z,68.70
2018-04-11T00:23:46.614Z,68.30
2018-04-11T00:26:18.933Z,68.30
2018-04-11T00:28:51.311Z,68.30
2018-04-11T00:31:23.898Z,68.50
2018-04-11T00:33:56.348Z,68.70
2018-04-11T00:36:28.893Z,68.80
2018-04-11T00:39:02.108Z,68.90
2018-04-11T00:41:34.420Z,68.80
2018-04-11T00:44:07.495Z,69.10
2018-04-11T00:46:40.685Z,69.10
2018-04-11T00:49:13.865Z,68.90
2018-04-11T00:51:46.505Z,68.70
2018-04-11T00:54:19.657Z,69.80
2018-04-11T00:56:52.105Z,69.30
2018-04-11T00:59:24.572Z,68.90
2018-04-11T01:01:57.367Z,68.80
2018-04-11T01:04:29.735Z,68.60
2018-04-11T01:07:02.210Z,68.30
2018-04-11T01:09:35.534Z,67.80
2018-04-11T01:12:08.611Z,68.00
2018-04-11T01:14:40.987Z,67.90
2018-04-11T01:17:14.213Z,68.50
2018-04-11T01:19:47.267Z,68.70
2018-04-11T01:22:20.505Z,69.30
2018-04-11T01:24:52.842Z,69.30
2018-04-11T01:27:25.140Z,69.30
2018-04-11T01:29:57.504Z,69.30
2018-04-11T01:32:30.650Z,69.60
2018-04-11T01:35:03.971Z,69.10
2018-04-11T01:37:36.551Z,69.10
2018-04-11T01:40:08.895Z,69.30
2018-04-11T01:42:41.255Z,68.90
2018-04-11T01:45:13.641Z,68.90
2018-04-11T01:47:46.006Z,68.50
2018-04-11T01:50:18.368Z,68.80
2018-04-11T01:52:50.819Z,68.60
2018-04-11T01:55:23.359Z,68.40
2018-04-11T01:57:56.551Z,68.40
2018-04-11T02:00:28.906Z,68.30
2018-04-11T02:03:01.375Z,68.70
2018-04-11T02:05:34.680Z,68.10
2018-04-11T02:08:07.148Z,68.10
2018-04-11T02:10:40.505Z,67.60
2018-04-11T02:13:12.951Z,67.50
2018-04-11T02:15:45.380Z,67.60
2018-04-11T02:18:17.743Z,67.40
2018-04-11T02:20:50.127Z,67.90
2018-04-11T02:23:23.274Z,67.70
2018-04-11T02:25:56.450Z,68.40
2018-04-11T02:28:28.932Z,68.30
2018-04-11T02:31:02.076Z,69.30
2018-04-11T02:33:34.677Z,69.30
2018-04-11T02:36:07.011Z,69.30
2018-04-11T02:38:39.444Z,69.40
2018-04-11T02:41:11.987Z,69.50
2018-04-11T02:43:44.368Z,69.80
2018-04-11T02:46:17.520Z,70.00
2018-04-11T02:48:49.947Z,70.00
2018-04-11T02:51:22.396Z,69.90
2018-04-11T02:53:54.824Z,70.30
2018-04-11T02:56:27.202Z,70.50
2018-04-11T02:58:59.646Z,71.00
2018-04-11T03:01:32.319Z,71.00
2018-04-11T03:04:04.737Z,71.30
2018-04-11T03:06:37.195Z,71.10
2018-04-11T03:09:09.615Z,71.90
2018-04-11T03:11:42.062Z,71.30
2018-04-11T03:14:14.419Z,72.40
2018-04-11T03:16:46.803Z,72.40
2018-04-11T03:19:19.109Z,72.70
2018-04-11T03:21:52.228Z,73.20
2018-04-11T03:24:24.593Z,73.20
2018-04-11T03:26:56.945Z,72.50
2018-04-11T03:29:29.357Z,72.50
2018-04-11T03:32:01.709Z,72.40
2018-04-11T03:34:34.142Z,72.20
2018-04-11T03:37:07.434Z,72.20
2018-04-11T03:39:39.901Z,72.20
2018-04-11T03:42:12.467Z,73.00
2018-04-11T03:44:45.157Z,72.60
2018-04-11T03:47:17.804Z,72.50
2018-04-11T03:49:50.452Z,72.30
2018-04-11T03:52:23.797Z,71.30
2018-04-11T03:54:56.398Z,71.20
2018-04-11T03:57:29.092Z,71.20
2018-04-11T04:00:01.742Z,71.10
2018-04-11T04:02:34.340Z,71.00
2018-04-11T04:05:06.831Z,71.00
2018-04-11T04:07:39.364Z,71.60
2018-04-11T04:10:11.821Z,71.60
2018-04-11T04:12:45.145Z,71.70
2018-04-11T04:15:29.909Z,71.70
2018-04-11T04:18:14.629Z,70.70
2018-04-11T04:20:47.105Z,71.20
2018-04-11T04:23:19.487Z,71.70
2018-04-11T04:25:51.851Z,71.40
2018-04-11T04:28:24.195Z,71.60
2018-04-11T04:30:56.610Z,71.70
2018-04-11T04:33:29.090Z,71.20
2018-04-11T04:36:01.730Z,71.60
2018-04-11T04:38:34.311Z,70.90
2018-04-11T04:41:07.021Z,71.30
2018-04-11T04:43:40.248Z,71.50
2018-04-11T04:46:12.728Z,71.50
2018-04-11T04:48:45.165Z,71.60
2018-04-11T04:51:17.526Z,71.90
2018-04-11T04:53:50.088Z,72.10
2018-04-11T04:56:22.448Z,72.20
2018-04-11T04:58:55.023Z,71.50
2018-04-11T05:01:27.414Z,71.10
2018-04-11T05:03:59.809Z,71.20
2018-04-11T05:06:33.144Z,71.40
2018-04-11T05:09:06.530Z,70.90
2018-04-11T05:11:39.000Z,70.90
2018-04-11T05:14:11.504Z,70.50
2018-04-11T05:16:44.084Z,70.00
2018-04-11T05:19:17.258Z,70.90
2018-04-11T05:21:50.415Z,71.20
2018-04-11T05:24:22.892Z,70.30
2018-04-11T05:26:55.481Z,69.90
2018-04-11T05:29:27.853Z,70.90
2018-04-11T05:32:01.367Z,70.70
2018-04-11T05:34:33.920Z,70.30
2018-04-11T05:37:06.328Z,70.70
2018-04-11T05:39:38.623Z,70.90
2018-04-11T05:42:11.108Z,71.10
2018-04-11T05:44:43.430Z,71.30
2018-04-11T05:47:15.858Z,72.10
2018-04-11T05:49:48.265Z,72.20
2018-04-11T05:52:20.731Z,72.60
2018-04-11T05:54:53.103Z,72.30
2018-04-11T05:57:26.181Z,72.20
2018-04-11T05:59:59.368Z,72.20
2018-04-11T06:02:31.818Z,72.20
2018-04-11T06:05:05.074Z,72.80
2018-04-11T06:07:37.379Z,72.80
2018-04-11T06:10:09.862Z,72.30
2018-04-11T06:12:42.379Z,72.70
2018-04-11T06:15:14.891Z,73.00
2018-04-11T06:17:47.277Z,73.80
2018-04-11T06:20:19.563Z,73.40
2018-04-11T06:22:52.026Z,73.40
2018-04-11T06:25:24.388Z,73.80
2018-04-11T06:27:56.753Z,75.10
2018-04-11T06:30:29.179Z,75.30
2018-04-11T06:33:02.486Z,77.00
2018-04-11T06:35:34.881Z,77.00
2018-04-11T06:38:07.209Z,74.90
2018-04-11T06:40:39.610Z,74.20
2018-04-11T06:43:12.778Z,76.30
2018-04-11T06:45:45.225Z,76.30
2018-04-11T06:48:17.589Z,75.50
2018-04-11T06:50:50.098Z,74.70
2018-04-11T06:53:22.403Z,75.50
2018-04-11T06:55:54.741Z,75.60
2018-04-11T06:58:27.240Z,75.30
2018-04-11T07:01:00.330Z,75.10
2018-04-11T07:03:32.766Z,75.10
2018-04-11T07:06:05.258Z,75.00
2018-04-11T07:08:37.664Z,75.40
2018-04-11T07:11:10.065Z,75.50
2018-04-11T07:13:42.673Z,74.50
2018-04-11T07:16:15.087Z,73.90
2018-04-11T07:18:48.262Z,76.70
2018-04-11T07:21:20.738Z,76.60
2018-04-11T07:23:53.206Z,75.80
2018-04-11T07:26:26.237Z,77.40
2018-04-11T07:28:59.457Z,80.10
2018-04-11T07:31:31.886Z,80.00
2018-04-11T07:34:04.293Z,77.40
2018-04-11T07:36:36.629Z,75.90
2018-04-11T07:39:08.933Z,76.90
2018-04-11T07:41:41.488Z,77.00
2018-04-11T07:44:14.029Z,77.00
2018-04-11T07:46:46.641Z,77.50
2018-04-11T07:49:19.176Z,77.30
2018-04-11T07:51:51.617Z,77.30
2018-04-11T07:54:24.292Z,79.00
2018-04-11T07:56:57.404Z,76.80
2018-04-11T07:59:29.888Z,76.80
2018-04-11T08:02:02.327Z,76.70
2018-04-11T08:04:35.497Z,76.70
2018-04-11T08:07:07.887Z,75.90
2018-04-11T08:09:40.289Z,79.30
2018-04-11T08:12:12.901Z,77.00
2018-04-11T08:14:46.170Z,78.00
2018-04-11T08:17:19.278Z,77.30
2018-04-11T08:19:52.432Z,76.10
2018-04-11T08:22:24.956Z,76.10
2018-04-11T08:24:58.208Z,80.90
2018-04-11T08:27:31.401Z,75.70
2018-04-11T08:30:04.029Z,75.60
2018-04-11T08:32:36.409Z,73.80
2018-04-11T08:35:08.963Z,73.80
2018-04-11T08:37:41.360Z,73.10
2018-04-11T08:40:14.461Z,79.70
2018-04-11T08:42:46.999Z,79.60
2018-04-11T08:45:19.352Z,73.30
2018-04-11T08:47:52.461Z,73.40
2018-04-11T08:50:24.850Z,73.30
2018-04-11T08:52:57.277Z,73.00
2018-04-11T08:55:30.134Z,72.40
2018-04-11T08:58:02.456Z,72.00
2018-04-11T09:00:34.854Z,71.40
2018-04-11T09:03:07.569Z,70.10
2018-04-11T09:05:40.322Z,70.60
2018-04-11T09:08:12.939Z,70.60
2018-04-11T09:10:45.459Z,67.70
2018-04-11T09:13:18.058Z,69.10
2018-04-11T09:15:50.729Z,68.70
2018-04-11T09:18:23.275Z,69.20
2018-04-11T09:20:56.039Z,70.10
2018-04-11T09:23:28.703Z,70.70
2018-04-11T09:26:01.375Z,67.90
2018-04-11T09:28:33.967Z,68.00
2018-04-11T09:31:06.625Z,68.60
2018-04-11T09:33:39.161Z,70.20
2018-04-11T09:36:11.513Z,69.70
2018-04-11T09:38:43.915Z,67.90
2018-04-11T09:41:16.210Z,68.40
2018-04-11T09:43:49.524Z,68.00
2018-04-11T09:46:21.879Z,67.80
2018-04-11T09:48:55.450Z,71.20
2018-04-11T09:51:27.850Z,68.30
2018-04-11T09:54:00.259Z,68.10
2018-04-11T09:56:32.622Z,68.10
2018-04-11T09:59:05.802Z,67.40
2018-04-11T10:01:44.230Z,67.40
2018-04-11T10:04:16.711Z,67.80
2018-04-11T10:06:49.362Z,67.10
2018-04-11T10:09:21.996Z,67.40
2018-04-11T10:11:54.852Z,68.80
2018-04-11T10:14:27.530Z,67.40
2018-04-11T10:17:00.223Z,68.60
2018-04-11T10:19:33.615Z,65.00
2018-04-11T10:22:06.364Z,65.00
2018-04-11T10:24:38.996Z,66.20
2018-04-11T10:27:12.488Z,68.10
2018-04-11T10:29:45.084Z,68.00
2018-04-11T10:32:17.702Z,66.80
2018-04-11T10:34:50.242Z,66.20
2018-04-11T10:37:22.997Z,67.70
2018-04-11T10:39:56.484Z,65.20
2018-04-11T10:42:29.065Z,65.40
2018-04-11T10:45:01.418Z,64.40
2018-04-11T10:47:33.834Z,66.20
2018-04-11T10:50:06.151Z,64.20
2018-04-11T10:52:38.538Z,63.60
2018-04-11T10:55:10.900Z,60.30
2018-04-11T10:57:46.932Z,61.60
2018-04-11T11:00:20.106Z,60.00
2018-04-11T11:02:52.582Z,60.00
2018-04-11T11:05:25.202Z,58.20
2018-04-11T11:07:57.710Z,55.50
2018-04-11T11:10:30.266Z,53.80
2018-04-11T11:13:02.719Z,55.50
2018-04-11T11:15:35.254Z,52.20
2018-04-11T11:18:07.602Z,53.60
2018-04-11T11:20:49.002Z,52.40
2018-04-11T11:23:21.478Z,54.60
2018-04-11T11:25:55.755Z,51.80
2018-04-11T11:28:29.052Z,52.60
2018-04-11T11:31:01.483Z,52.60
2018-04-11T11:33:33.791Z,53.30
2018-04-11T11:36:06.226Z,53.50
2018-04-11T11:38:38.783Z,54.00
2018-04-11T11:41:12.050Z,54.20
2018-04-11T11:43:44.443Z,54.20
2018-04-11T11:46:16.780Z,52.60
2018-04-11T11:48:49.840Z,51.80
2018-04-11T11:51:23.128Z,50.50
2018-04-11T11:53:56.217Z,50.50
2018-04-11T11:56:28.892Z,51.40
2018-04-11T11:59:01.494Z,50.90
2018-04-11T12:01:34.823Z,52.30
2018-04-11T12:04:07.315Z,52.20
2018-04-11T12:06:39.699Z,48.40
2018-04-11T12:09:12.116Z,48.70
2018-04-11T12:11:44.438Z,50.40
2018-04-11T12:14:16.768Z,50.50
2018-04-11T12:16:49.186Z,51.90
2018-04-11T12:19:21.644Z,48.70
2018-04-11T12:21:54.030Z,50.50
2018-04-11T12:24:26.414Z,49.50
2018-04-11T12:26:58.795Z,48.60
2018-04-11T12:29:31.188Z,50.50
2018-04-11T12:32:03.626Z,48.30
2018-04-11T12:34:36.096Z,48.10
2018-04-11T12:37:08.508Z,50.20
2018-04-11T12:39:40.888Z,47.10
2018-04-11T12:42:13.687Z,47.90
2018-04-11T12:44:46.121Z,48.00
2018-04-11T12:47:19.210Z,48.90
2018-04-11T12:49:51.548Z,48.90
2018-04-11T12:52:23.847Z,48.00
2018-04-11T12:54:56.263Z,48.10
2018-04-11T12:57:28.620Z,48.40
2018-04-11T13:00:00.962Z,47.90
2018-04-11T13:02:33.372Z,46.70
2018-04-11T13:05:05.823Z,46.80
2018-04-11T13:07:38.185Z,46.20
2018-04-11T13:10:10.627Z,47.60
2018-04-11T13:12:43.124Z,46.10
2018-04-11T13:15:15.403Z,47.30
2018-04-11T13:17:48.443Z,46.50
2018-04-11T13:20:20.994Z,46.40
2018-04-11T13:22:53.718Z,47.00
2018-04-11T13:25:26.034Z,46.10
2018-04-11T13:27:58.466Z,47.80
2018-04-11T13:30:30.835Z,47.80
2018-04-11T13:33:03.370Z,46.50
2018-04-11T13:35:35.762Z,46.20
2018-04-11T13:38:08.231Z,46.30
2018-04-11T13:40:40.582Z,46.20
2018-04-11T13:43:13.125Z,46.70
2018-04-11T13:45:46.262Z,44.30
2018-04-11T13:48:18.598Z,44.30
2018-04-11T13:50:50.979Z,46.80
2018-04-11T13:53:23.367Z,46.00
2018-04-11T13:55:55.712Z,47.10
2018-04-11T13:58:28.199Z,46.20
2018-04-11T14:01:01.213Z,42.40
2018-04-11T14:03:33.672Z,42.40
2018-04-11T14:06:06.117Z,44.20
2018-04-11T14:08:38.511Z,43.70
2018-04-11T14:11:10.872Z,42.40
2018-04-11T14:13:43.917Z,43.20
2018-04-11T14:16:16.275Z,43.20
2018-04-11T14:18:48.684Z,44.00
2018-04-11T14:21:21.051Z,44.00
2018-04-11T14:23:53.492Z,42.00
2018-04-11T14:26:25.918Z,42.50
2018-04-11T14:28:58.430Z,45.10
2018-04-11T14:31:30.947Z,44.90
2018-04-11T14:34:03.362Z,42.10
2018-04-11T14:36:35.680Z,42.50
2018-04-11T14:39:08.186Z,42.20
2018-04-11T14:41:40.433Z,42.50
2018-04-11T14:44:13.653Z,43.00
2018-04-11T14:46:45.989Z,42.90
2018-04-11T14:49:19.246Z,43.10
2018-04-11T14:51:51.778Z,43.10
2018-04-11T14:54:24.957Z,42.30
2018-04-11T14:56:58.118Z,44.20
2018-04-11T14:59:31.182Z,39.90
2018-04-11T15:02:05.607Z,39.90
2018-04-11T15:04:37.898Z,42.00
2018-04-11T15:07:10.330Z,42.10
2018-04-11T15:09:42.818Z,41.20
2018-04-11T15:12:16.166Z,41.70
2018-04-11T15:14:48.569Z,41.70
2018-04-11T15:17:20.950Z,40.40
2018-04-11T15:19:53.312Z,41.10
2018-04-11T15:22:25.619Z,41.70
2018-04-11T15:24:58.711Z,42.30
2018-04-11T15:27:31.253Z,42.20
2018-04-11T15:30:03.707Z,41.10
2018-04-11T15:32:36.164Z,40.70
2018-04-11T15:35:08.680Z,41.40
2018-04-11T15:37:41.000Z,41.40
2018-04-11T15:40:13.427Z,41.90
2018-04-11T15:42:45.927Z,40.50
2018-04-11T15:45:18.288Z,40.30
2018-04-11T15:47:50.677Z,42.10
2018-04-11T15:50:23.734Z,41.50
2018-04-11T15:52:56.954Z,41.10
2018-04-11T15:55:29.460Z,41.00
2018-04-11T15:58:02.626Z,40.20
2018-04-11T16:00:35.822Z,41.80
2018-04-11T16:03:08.325Z,41.70
2018-04-11T16:05:40.793Z,42.60
2018-04-11T16:08:13.171Z,43.20
2018-04-11T16:10:46.257Z,42.70
2018-04-11T16:13:19.398Z,42.80
2018-04-11T16:15:51.946Z,42.70
2018-04-11T16:18:24.202Z,42.20
2018-04-11T16:20:56.716Z,43.00
2018-04-11T16:23:29.146Z,42.50
2018-04-11T16:26:01.608Z,42.20
2018-04-11T16:28:34.122Z,42.10
2018-04-11T16:31:06.437Z,41.40
2018-04-11T16:33:38.754Z,42.90
2018-04-11T16:36:11.150Z,43.80
2018-04-11T16:38:43.515Z,43.40
2018-04-11T16:41:16.625Z,44.00
2018-04-11T16:43:48.985Z,44.00
2018-04-11T16:46:21.294Z,43.80
2018-04-11T16:48:53.635Z,42.70
2018-04-11T16:51:25.994Z,42.30
2018-04-11T16:53:58.493Z,41.40
2018-04-11T16:56:31.084Z,42.50
2018-04-11T16:59:04.377Z,42.10
2018-04-11T17:01:36.751Z,42.10
2018-04-11T17:04:09.091Z,41.30
2018-04-11T17:06:41.405Z,40.90
2018-04-11T17:09:13.918Z,42.00
2018-04-11T17:11:46.273Z,41.30
2018-04-11T17:14:18.813Z,40.70
2018-04-11T17:16:51.381Z,41.60
2018-04-11T17:19:24.590Z,41.40
2018-04-11T17:22:10.102Z,41.10
2018-04-11T17:24:59.394Z,41.10
2018-04-11T17:27:44.747Z,41.50
2018-04-11T17:30:29.482Z,41.40
2018-04-11T17:33:02.664Z,42.70
2018-04-11T17:35:35.061Z,42.70
2018-04-11T17:38:07.469Z,42.30
2018-04-11T17:40:40.636Z,42.60
2018-04-11T17:43:12.967Z,42.60
2018-04-11T17:45:45.282Z,43.00
2018-04-11T17:48:17.729Z,43.10
2018-04-11T17:50:49.992Z,42.90
2018-04-11T17:53:22.343Z,42.90
2018-04-11T17:55:54.705Z,43.30
2018-04-11T17:58:27.103Z,42.90
2018-04-11T18:01:09.627Z,43.30
2018-04-11T18:03:42.270Z,43.30
2018-04-11T18:06:14.718Z,44.10
2018-04-11T18:08:46.965Z,44.10
2018-04-11T18:11:19.410Z,44.20
2018-04-11T18:13:51.790Z,45.10
2018-04-11T18:16:24.190Z,45.10
2018-04-11T18:18:56.639Z,45.20
2018-04-11T18:21:29.102Z,45.20
2018-04-11T18:24:01.577Z,45.10
2018-04-11T18:26:34.066Z,45.60
2018-04-11T18:29:07.174Z,45.80
2018-04-11T18:31:39.536Z,45.70
2018-04-11T18:34:11.939Z,45.90
2018-04-11T18:36:44.378Z,46.40
2018-04-11T18:39:16.974Z,46.70
2018-04-11T18:41:49.279Z,47.10
2018-04-11T18:44:22.501Z,47.10
2018-04-11T18:46:54.925Z,47.10
2018-04-11T18:49:27.386Z,47.00
2018-04-11T18:51:59.802Z,47.00
2018-04-11T18:54:32.071Z,47.00
2018-04-11T18:57:04.410Z,47.30
2018-04-11T18:59:36.821Z,47.40
2018-04-11T19:02:09.332Z,47.20
2018-04-11T19:04:41.962Z,47.50
2018-04-11T19:07:15.325Z,47.50
2018-04-11T19:09:47.813Z,47.50
2018-04-11T19:12:20.235Z,47.70
2018-04-11T19:14:52.790Z,47.70
2018-04-11T19:17:25.326Z,48.00
2018-04-11T19:19:57.647Z,48.00
2018-04-11T19:22:29.986Z,48.20
2018-04-11T19:25:02.650Z,48.70
2018-04-11T19:27:35.805Z,48.70
2018-04-11T19:30:08.239Z,48.60
2018-04-11T19:32:40.518Z,48.80
2018-04-11T19:35:12.974Z,48.70
2018-04-11T19:37:45.330Z,48.90
2018-04-11T19:40:18.696Z,49.40
2018-04-11T19:42:51.046Z,49.40
2018-04-11T19:45:23.415Z,49.30
2018-04-11T19:47:55.701Z,49.40
2018-04-11T19:50:28.040Z,49.20
2018-04-11T19:53:00.483Z,49.50
2018-04-11T19:55:32.833Z,49.50
2018-04-11T19:58:05.230Z,49.70
2018-04-11T20:00:38.400Z,49.70
2018-04-11T20:03:04.678Z,49.70
2018-04-11T20:05:30.978Z,50.00
2018-04-11T20:07:57.338Z,50.00
2018-04-11T20:10:23.602Z,49.90
2018-04-11T20:12:50.618Z,50.60
2018-04-11T20:15:16.899Z,50.50
2018-04-11T20:17:43.190Z,50.90
2018-04-11T20:20:10.224Z,51.50
2018-04-11T20:22:36.504Z,51.50
2018-04-11T20:25:02.777Z,51.50
2018-04-11T20:27:29.138Z,51.40
2018-04-11T20:29:56.156Z,50.90
2018-04-11T20:32:22.458Z,50.80
2018-04-11T20:34:48.767Z,50.90
2018-04-11T20:40:07.993Z,50.80
2018-04-11T20:42:34.290Z,51.20
2018-04-11T20:45:00.599Z,50.80
2018-04-11T20:47:26.873Z,50.30
2018-04-11T20:49:53.147Z,51.20
2018-04-11T20:52:19.412Z,51.70
2018-04-11T20:54:45.710Z,51.80
2018-04-11T20:57:11.998Z,52.10
2018-04-11T20:59:38.310Z,52.60
2018-04-11T21:02:07.942Z,52.60
2018-04-11T21:04:34.274Z,52.80
2018-04-11T21:07:00.545Z,53.00
2018-04-11T21:09:28.022Z,53.40
2018-04-11T21:11:54.254Z,53.50
2018-04-11T21:14:20.478Z,53.00
2018-04-11T21:16:46.682Z,52.90
2018-04-11T21:19:12.958Z,53.50
2018-04-11T21:21:39.182Z,54.10
2018-04-11T21:24:05.482Z,54.10
2018-04-11T21:26:31.755Z,54.20
2018-04-11T21:28:58.001Z,53.60
2018-04-11T21:31:24.267Z,54.40
2018-04-11T21:33:50.510Z,54.50
2018-04-11T21:36:16.711Z,54.30
2018-04-11T21:38:43.037Z,54.10
2018-04-11T21:41:10.051Z,54.10
2018-04-11T21:43:36.265Z,54.00
2018-04-11T21:46:02.525Z,54.10
2018-04-11T21:48:29.504Z,54.70
2018-04-11T21:50:55.727Z,53.90
2018-04-11T21:53:21.919Z,54.10
2018-04-11T21:55:48.196Z,54.20
2018-04-11T21:58:14.490Z,54.20
2018-04-11T22:00:40.776Z,54.40
2018-04-11T22:03:07.003Z,54.30
2018-04-11T22:05:33.233Z,54.20
2018-04-11T22:07:59.456Z,54.10
2018-04-11T22:10:25.684Z,54.40
2018-04-11T22:12:51.917Z,54.70
2018-04-11T22:15:18.158Z,54.60
2018-04-11T22:17:44.403Z,54.70
2018-04-11T22:20:11.408Z,54.40
2018-04-11T22:22:37.682Z,54.40
2018-04-11T22:25:03.955Z,54.40
2018-04-11T22:27:30.268Z,54.20
2018-04-11T22:29:56.575Z,54.70
2018-04-11T22:32:23.550Z,54.70
2018-04-11T22:34:49.783Z,54.60
2018-04-11T22:37:16.045Z,54.70
2018-04-11T22:39:42.285Z,54.40
2018-04-11T22:42:08.574Z,54.50
2018-04-11T22:44:34.834Z,54.50
2018-04-11T22:47:01.026Z,54.70
2018-04-11T22:49:27.284Z,55.50
2018-04-11T22:51:53.501Z,55.40
2018-04-11T22:54:19.742Z,55.20
2018-04-11T22:56:45.983Z,55.00
2018-04-11T22:59:12.198Z,54.70
2018-04-11T23:01:38.439Z,55.20
2018-04-11T23:04:04.673Z,55.10
2018-04-11T23:06:30.922Z,55.00
2018-04-11T23:08:57.912Z,55.40
2018-04-11T23:11:24.184Z,55.40
2018-04-11T23:13:50.475Z,55.50
2018-04-11T23:16:16.797Z,55.30
2018-04-11T23:18:43.034Z,55.60
2018-04-11T23:21:09.285Z,55.60
2018-04-11T23:23:35.540Z,55.70
2018-04-11T23:26:02.537Z,55.60
2018-04-11T23:28:28.742Z,55.50
2018-04-11T23:30:54.975Z,55.80
2018-04-11T23:33:21.267Z,56.30
2018-04-11T23:35:48.245Z,56.50
2018-04-11T23:38:14.537Z,56.50
2018-04-11T23:40:41.502Z,57.10
2018-04-11T23:43:07.731Z,57.00
2018-04-11T23:45:33.981Z,57.20
2018-04-11T23:48:00.177Z,57.50
2018-04-11T23:50:27.130Z,58.20
2018-04-11T23:52:53.377Z,58.20
2018-04-11T23:55:19.582Z,58.40
2018-04-11T23:57:46.577Z,58.70
